Time;durP1;ratioP1;P1;durP2;ratioP2;P2;SDS_P1;SDS_P2;PMS_P1;PMS_P2;Temp;Humidity;BMP_temperature;BMP_pressure;BME280_temperature;BME280_humidity;BME280_pressure;Samples;Min_cycle;Max_cycle;Signal;HPM_P1;HPM_P2
2021/08/11 00:00:14;;;;;;;6.57;3.55;;;16.00;79.40;;;;;;5084191;28;20049;-89
2021/08/11 00:02:41;;;;;;;9.07;4.15;;;16.00;79.40;;;;;;5078874;28;20453;-93
2021/08/11 00:05:09;;;;;;;6.88;4.15;;;15.90;79.40;;;;;;5080573;28;20075;-93
2021/08/11 00:07:36;;;;;;;9.75;5.03;;;15.90;79.50;;;;;;5079759;28;20048;-93
2021/08/11 00:10:04;;;;;;;8.63;4.40;;;15.90;79.50;;;;;;5074743;28;20040;-96
2021/08/11 00:12:32;;;;;;;9.00;4.03;;;15.90;79.60;;;;;;5075438;28;20049;-94
2021/08/11 00:14:59;;;;;;;7.13;4.45;;;15.80;79.70;;;;;;5074213;28;20079;-92
2021/08/11 00:17:26;;;;;;;8.95;4.82;;;15.80;79.70;;;;;;5073302;28;20044;-92
2021/08/11 00:19:53;;;;;;;9.80;5.00;;;15.80;79.80;;;;;;5073177;28;20044;-94
2021/08/11 00:22:19;;;;;;;11.73;5.85;;;15.70;79.80;;;;;;5072801;28;20044;-93
2021/08/11 00:24:46;;;;;;;9.80;5.05;;;15.70;79.80;;;;;;5073036;28;20453;-93
2021/08/11 00:27:13;;;;;;;10.10;5.65;;;15.70;79.80;;;;;;5073779;28;20049;-92
2021/08/11 00:29:40;;;;;;;9.05;5.65;;;15.70;79.80;;;;;;5072597;28;20048;-94
2021/08/11 00:32:07;;;;;;;9.23;5.85;;;15.70;79.80;;;;;;5073252;28;20044;-95
2021/08/11 00:34:34;;;;;;;15.63;6.07;;;15.70;79.80;;;;;;5072967;28;20113;-95
2021/08/11 00:37:00;;;;;;;10.63;5.68;;;15.60;79.80;;;;;;5072873;28;20123;-94
2021/08/11 00:39:27;;;;;;;12.30;7.03;;;15.60;79.80;;;;;;5073443;28;20658;-95
2021/08/11 00:41:54;;;;;;;13.43;6.63;;;15.60;79.80;;;;;;5073419;28;20506;-94
2021/08/11 00:44:21;;;;;;;13.18;6.82;;;15.60;79.90;;;;;;5072588;28;20049;-94
2021/08/11 00:46:50;;;;;;;12.15;6.68;;;15.60;79.80;;;;;;5073014;28;20044;-92
2021/08/11 00:49:17;;;;;;;13.25;6.93;;;15.60;79.80;;;;;;5076511;28;20044;-93
2021/08/11 00:51:45;;;;;;;11.52;7.03;;;15.60;79.90;;;;;;5076119;28;20061;-92
2021/08/11 00:54:13;;;;;;;11.65;7.30;;;15.50;80.00;;;;;;5077262;28;20045;-94
2021/08/11 00:56:46;;;;;;;18.13;7.95;;;15.50;80.00;;;;;;5072876;28;20114;-93
2021/08/11 00:59:16;;;;;;;14.65;7.88;;;15.50;80.10;;;;;;5074207;28;20052;-94
2021/08/11 01:01:46;;;;;;;16.83;7.38;;;15.40;80.10;;;;;;5074516;28;20049;-94
2021/08/11 01:04:15;;;;;;;12.48;7.25;;;15.40;80.20;;;;;;5074207;28;20106;-93
2021/08/11 01:06:43;;;;;;;12.05;8.35;;;15.40;80.30;;;;;;5074533;28;20059;-94
2021/08/11 01:09:16;;;;;;;11.70;8.35;;;15.40;80.40;;;;;;5074348;28;20110;-92
2021/08/11 01:11:45;;;;;;;15.80;8.80;;;15.40;80.40;;;;;;5073531;28;20122;-95
2021/08/11 01:14:14;;;;;;;16.52;8.70;;;15.30;80.50;;;;;;5072666;28;20048;-94
2021/08/11 01:16:41;;;;;;;12.10;6.90;;;15.30;80.60;;;;;;5074300;28;20052;-92
2021/08/11 01:19:09;;;;;;;17.42;6.40;;;15.30;80.60;;;;;;5075306;28;20044;-93
2021/08/11 01:21:43;;;;;;;11.93;7.53;;;15.30;80.60;;;;;;5075094;28;20057;-93
2021/08/11 01:24:23;;;;;;;12.98;8.18;;;15.30;80.60;;;;;;5074712;28;20502;-93
2021/08/11 01:27:39;;;;;;;12.32;7.88;;;15.30;80.60;;;;;;5076518;28;20102;-95
2021/08/11 01:30:33;;;;;;;14.20;7.93;;;15.30;80.60;;;;;;5032495;28;20095;-94
2021/08/11 01:33:12;;;;;;;13.02;8.05;;;15.30;80.60;;;;;;5033050;28;20049;-94
2021/08/11 01:35:46;;;;;;;11.20;7.07;;;15.30;80.60;;;;;;5026961;28;20046;-94
2021/08/11 01:38:17;;;;;;;12.90;8.13;;;15.30;80.60;;;;;;5026701;28;20522;-93
2021/08/11 01:40:54;;;;;;;10.70;6.63;;;15.20;80.70;;;;;;5036227;28;20053;-91
2021/08/11 01:43:25;;;;;;;11.93;8.00;;;15.20;80.70;;;;;;5027757;28;20045;-93
2021/08/11 01:45:55;;;;;;;12.93;7.28;;;15.20;80.60;;;;;;5023390;28;20107;-94
2021/08/11 01:48:27;;;;;;;11.90;7.40;;;15.20;80.70;;;;;;5037304;28;20164;-94
2021/08/11 01:50:55;;;;;;;13.65;8.02;;;15.20;80.70;;;;;;5043155;28;20037;-93
2021/08/11 01:53:24;;;;;;;14.63;7.75;;;15.20;80.70;;;;;;5048920;28;20029;-87
2021/08/11 01:55:55;;;;;;;17.05;8.30;;;15.20;80.70;;;;;;5052586;28;20050;-84
2021/08/11 01:58:24;;;;;;;13.43;7.63;;;15.20;80.70;;;;;;5051656;28;20026;-92
2021/08/11 02:00:54;;;;;;;16.48;8.30;;;15.20;80.70;;;;;;5041274;28;20029;-94
2021/08/11 02:03:22;;;;;;;15.23;8.55;;;15.20;80.80;;;;;;5022667;28;20093;-94
2021/08/11 02:05:51;;;;;;;11.68;8.20;;;15.20;80.80;;;;;;5046225;28;20090;-92
2021/08/11 02:08:19;;;;;;;11.60;7.43;;;15.10;80.80;;;;;;5086299;28;20486;-93
2021/08/11 02:10:48;;;;;;;13.30;8.18;;;15.10;80.80;;;;;;5085831;28;20056;-93
2021/08/11 02:13:17;;;;;;;12.27;7.63;;;15.10;80.90;;;;;;5082589;28;20060;-93
2021/08/11 02:15:51;;;;;;;13.20;8.50;;;15.00;80.90;;;;;;5084580;28;20052;-93
2021/08/11 02:18:19;;;;;;;11.90;8.48;;;15.00;81.00;;;;;;5088175;28;20406;-93
2021/08/11 02:20:46;;;;;;;14.90;8.10;;;15.00;81.00;;;;;;5090390;28;20102;-94
2021/08/11 02:23:13;;;;;;;12.48;8.30;;;15.00;81.10;;;;;;5084771;28;20070;-91
2021/08/11 02:26:05;;;;;;;18.83;8.50;;;14.90;81.00;;;;;;5082175;28;20498;-93
2021/08/11 02:28:42;;;;;;;16.60;8.15;;;14.90;81.00;;;;;;5087776;28;20070;-94
2021/08/11 02:31:16;;;;;;;10.05;7.43;;;14.90;81.10;;;;;;5084155;28;20041;-92
2021/08/11 02:33:52;;;;;;;12.27;8.20;;;14.90;81.10;;;;;;5087768;28;20101;-89
2021/08/11 02:36:34;;;;;;;11.35;7.60;;;14.80;81.10;;;;;;5082896;28;20049;-94
2021/08/11 02:39:09;;;;;;;13.55;7.28;;;14.80;81.20;;;;;;5085228;28;20062;-93
2021/08/11 02:41:44;;;;;;;11.98;7.03;;;14.70;81.20;;;;;;5088961;28;20049;-94
2021/08/11 02:44:21;;;;;;;16.88;7.65;;;14.70;81.30;;;;;;5084673;28;20094;-91
2021/08/11 02:46:49;;;;;;;16.48;8.13;;;14.60;81.30;;;;;;5084372;28;20138;-94
2021/08/11 02:49:27;;;;;;;15.75;7.10;;;14.70;81.30;;;;;;5086425;28;20041;-89
2021/08/11 02:51:57;;;;;;;11.68;7.65;;;14.60;81.20;;;;;;5069736;28;20105;-92
2021/08/11 02:54:25;;;;;;;10.27;7.20;;;14.60;81.30;;;;;;5083446;28;20048;-92
2021/08/11 02:56:54;;;;;;;15.95;7.00;;;14.60;81.30;;;;;;5081582;28;20052;-92
2021/08/11 02:59:24;;;;;;;11.15;7.45;;;14.60;81.30;;;;;;5083691;28;20052;-94
2021/08/11 03:01:52;;;;;;;12.57;7.43;;;14.50;81.30;;;;;;5084297;28;20052;-93
2021/08/11 03:04:19;;;;;;;11.63;7.30;;;14.50;81.40;;;;;;5085489;28;20104;-94
2021/08/11 03:06:46;;;;;;;13.38;7.30;;;14.50;81.40;;;;;;5079458;28;20111;-93
2021/08/11 03:09:13;;;;;;;9.95;7.18;;;14.50;81.40;;;;;;5079637;28;20040;-94
2021/08/11 03:11:40;;;;;;;13.15;7.80;;;14.50;81.40;;;;;;5078766;28;20078;-93
2021/08/11 03:14:11;;;;;;;11.98;7.78;;;14.50;81.40;;;;;;5076954;28;20036;-94
2021/08/11 03:16:39;;;;;;;18.23;8.30;;;14.50;81.50;;;;;;5078897;28;20451;-92
2021/08/11 03:19:07;;;;;;;12.10;7.93;;;14.40;81.60;;;;;;5078117;28;20463;-96
2021/08/11 03:21:35;;;;;;;11.43;7.57;;;14.40;81.60;;;;;;5077123;28;20075;-93
2021/08/11 03:24:02;;;;;;;11.55;7.60;;;14.40;81.70;;;;;;5078246;28;20053;-94
2021/08/11 03:26:29;;;;;;;13.43;7.55;;;14.40;81.80;;;;;;5078618;28;20098;-93
2021/08/11 03:28:59;;;;;;;12.63;7.40;;;14.40;81.80;;;;;;5078653;28;20044;-95
2021/08/11 03:31:30;;;;;;;11.73;7.68;;;14.40;81.80;;;;;;5079459;28;20048;-93
2021/08/11 03:33:58;;;;;;;10.15;6.63;;;14.40;81.90;;;;;;5080304;28;20044;-91
2021/08/11 03:36:26;;;;;;;13.98;8.23;;;14.40;81.80;;;;;;5078708;28;20083;-93
2021/08/11 03:38:53;;;;;;;13.20;7.45;;;14.30;81.80;;;;;;5078052;28;20078;-94
2021/08/11 03:41:20;;;;;;;15.15;7.72;;;14.30;81.90;;;;;;5078386;28;20048;-94
2021/08/11 03:43:46;;;;;;;11.70;7.10;;;14.30;81.90;;;;;;5078147;28;20073;-93
2021/08/11 03:46:14;;;;;;;10.77;6.82;;;14.20;81.80;;;;;;5078019;28;20048;-93
2021/08/11 03:48:41;;;;;;;25.05;8.13;;;14.30;81.80;;;;;;5076716;28;20048;-94
2021/08/11 03:51:08;;;;;;;17.95;8.45;;;14.20;81.80;;;;;;5077382;28;20048;-94
2021/08/11 03:53:35;;;;;;;14.52;8.13;;;14.20;81.90;;;;;;5077140;28;20044;-94
2021/08/11 03:56:02;;;;;;;11.27;7.90;;;14.20;81.90;;;;;;5077108;28;20101;-93
2021/08/11 03:58:29;;;;;;;13.85;8.57;;;14.20;81.80;;;;;;5075638;28;20166;-92
2021/08/11 04:00:55;;;;;;;14.50;7.20;;;14.20;81.80;;;;;;5075667;28;20098;-93
2021/08/11 04:03:23;;;;;;;11.38;7.97;;;14.20;81.80;;;;;;5076153;28;20401;-95
2021/08/11 04:05:50;;;;;;;12.20;7.45;;;14.20;81.80;;;;;;5075416;28;20055;-93
2021/08/11 04:08:17;;;;;;;11.75;7.40;;;14.20;81.70;;;;;;5074842;28;20095;-95
2021/08/11 04:10:47;;;;;;;16.70;7.82;;;14.20;81.70;;;;;;5075628;28;20102;-94
2021/08/11 04:13:15;;;;;;;14.00;8.60;;;14.20;81.60;;;;;;5075814;28;20468;-94
2021/08/11 04:15:42;;;;;;;13.07;7.03;;;14.20;81.60;;;;;;5074757;28;20079;-93
2021/08/11 04:18:09;;;;;;;12.20;7.43;;;14.20;81.60;;;;;;5075193;28;20055;-91
2021/08/11 04:20:37;;;;;;;16.25;8.57;;;14.20;81.60;;;;;;5074410;28;20056;-93
2021/08/11 04:23:06;;;;;;;14.38;8.13;;;14.10;81.50;;;;;;5073670;28;20052;-94
2021/08/11 04:25:39;;;;;;;13.40;8.02;;;14.10;81.50;;;;;;5074418;28;20049;-93
2021/08/11 04:28:09;;;;;;;9.65;6.65;;;14.10;81.50;;;;;;5074233;28;20501;-92
2021/08/11 04:30:37;;;;;;;14.02;7.57;;;14.00;81.50;;;;;;5073637;28;20074;-92
2021/08/11 04:33:04;;;;;;;12.55;8.25;;;14.00;81.50;;;;;;5072224;28;20059;-94
2021/08/11 04:35:31;;;;;;;16.75;8.02;;;14.00;81.50;;;;;;5074046;28;20048;-85
2021/08/11 04:37:58;;;;;;;11.40;6.85;;;14.00;81.50;;;;;;5073990;28;20471;-92
2021/08/11 04:40:25;;;;;;;12.05;7.13;;;14.00;81.50;;;;;;5074200;28;20106;-93
2021/08/11 04:42:52;;;;;;;28.38;8.07;;;13.90;81.60;;;;;;5059552;28;20041;-91
2021/08/11 04:45:19;;;;;;;10.95;7.40;;;13.90;81.60;;;;;;5070027;28;20052;-93
2021/08/11 04:47:48;;;;;;;12.23;7.60;;;13.90;81.70;;;;;;5074441;28;20456;-90
2021/08/11 04:50:15;;;;;;;11.57;7.43;;;13.80;81.70;;;;;;5073289;28;20041;-93
2021/08/11 04:52:42;;;;;;;9.45;6.70;;;13.80;81.70;;;;;;5074573;28;20049;-95
2021/08/11 04:55:12;;;;;;;13.82;7.35;;;13.80;81.70;;;;;;5074892;28;20044;-90
2021/08/11 04:57:39;;;;;;;15.68;7.60;;;13.70;81.80;;;;;;5074420;28;20056;-91
2021/08/11 05:00:07;;;;;;;16.63;7.35;;;13.70;81.80;;;;;;5074493;28;20470;-94
2021/08/11 05:02:34;;;;;;;15.43;7.22;;;13.70;81.90;;;;;;5074361;28;20048;-89
2021/08/11 05:05:01;;;;;;;14.60;7.15;;;13.70;81.90;;;;;;5073627;28;20127;-95
2021/08/11 05:07:28;;;;;;;16.02;7.72;;;13.70;81.90;;;;;;5074411;28;20131;-95
2021/08/11 05:09:55;;;;;;;18.33;7.50;;;13.60;81.90;;;;;;5073960;28;20086;-93
2021/08/11 05:12:23;;;;;;;14.65;6.95;;;13.60;82.00;;;;;;5074778;28;20090;-93
2021/08/11 05:14:52;;;;;;;20.40;8.15;;;13.60;82.10;;;;;;5073646;28;20060;-93
2021/08/11 05:17:23;;;;;;;18.15;7.40;;;13.50;82.10;;;;;;5073382;28;20055;-92
2021/08/11 05:19:50;;;;;;;22.65;7.68;;;13.60;82.20;;;;;;5071464;28;20037;-94
2021/08/11 05:22:20;;;;;;;20.52;7.65;;;13.50;82.30;;;;;;5073224;28;20052;-91
2021/08/11 05:24:47;;;;;;;14.18;7.85;;;13.50;82.30;;;;;;5073921;28;20052;-93
2021/08/11 05:27:17;;;;;;;17.55;7.85;;;13.50;82.40;;;;;;5073886;28;20045;-93
2021/08/11 05:29:45;;;;;;;14.80;7.72;;;13.50;82.50;;;;;;5072984;28;20048;-92
2021/08/11 05:32:13;;;;;;;17.73;7.53;;;13.40;82.50;;;;;;5073258;28;20048;-92
2021/08/11 05:34:39;;;;;;;12.75;7.65;;;13.50;82.60;;;;;;5072424;28;20102;-93
2021/08/11 05:37:07;;;;;;;15.13;8.13;;;13.50;82.70;;;;;;5072613;28;20090;-94
2021/08/11 05:39:34;;;;;;;14.18;8.15;;;13.50;82.80;;;;;;5073651;28;20044;-94
2021/08/11 05:42:01;;;;;;;15.60;7.40;;;13.50;82.90;;;;;;5073361;28;20053;-94
2021/08/11 05:44:27;;;;;;;15.73;7.63;;;13.40;83.00;;;;;;5072631;28;20113;-93
2021/08/11 05:46:54;;;;;;;16.98;8.32;;;13.50;83.00;;;;;;5071262;28;20053;-92
2021/08/11 05:49:21;;;;;;;15.88;7.50;;;13.50;83.10;;;;;;5072375;28;20117;-92
2021/08/11 05:51:48;;;;;;;15.35;7.25;;;13.50;83.20;;;;;;5072878;28;20040;-92
2021/08/11 05:54:15;;;;;;;10.60;6.75;;;13.50;83.30;;;;;;5072957;28;20044;-92
2021/08/11 05:56:42;;;;;;;16.88;7.35;;;13.60;83.40;;;;;;5072910;28;20126;-93
2021/08/11 05:59:09;;;;;;;12.55;7.00;;;13.60;83.50;;;;;;5072581;28;20106;-90
2021/08/11 06:01:36;;;;;;;13.27;7.50;;;13.60;83.60;;;;;;5072137;28;20094;-92
2021/08/11 06:04:04;;;;;;;13.57;7.20;;;13.60;83.60;;;;;;5072810;28;20036;-92
2021/08/11 06:06:30;;;;;;;14.32;7.03;;;13.70;83.70;;;;;;5072905;28;20082;-91
2021/08/11 06:08:57;;;;;;;11.52;6.43;;;13.70;83.80;;;;;;5071840;28;20094;-93
2021/08/11 06:11:24;;;;;;;12.30;7.65;;;13.70;83.80;;;;;;5072232;28;20067;-94
2021/08/11 06:13:51;;;;;;;11.30;6.50;;;13.80;83.80;;;;;;5072633;28;20044;-94
2021/08/11 06:16:18;;;;;;;16.90;7.20;;;13.90;83.80;;;;;;5072546;28;20049;-90
2021/08/11 06:18:45;;;;;;;11.85;6.97;;;13.90;83.80;;;;;;5071526;28;20080;-93
2021/08/11 06:21:12;;;;;;;12.55;6.47;;;13.90;83.80;;;;;;5074863;28;20053;-93
2021/08/11 06:23:39;;;;;;;15.52;6.97;;;14.00;83.90;;;;;;5074663;28;20583;-92
2021/08/11 06:26:06;;;;;;;10.77;6.05;;;14.10;83.90;;;;;;5076072;28;20052;-94
2021/08/11 06:28:33;;;;;;;12.85;6.03;;;14.10;83.90;;;;;;5075998;28;20472;-92
2021/08/11 06:31:00;;;;;;;8.68;6.15;;;14.20;83.90;;;;;;5076101;28;20072;-94
2021/08/11 06:33:27;;;;;;;14.40;6.85;;;14.30;83.90;;;;;;5075351;28;20127;-92
2021/08/11 06:35:54;;;;;;;14.85;6.43;;;14.30;83.90;;;;;;5075476;28;20102;-94
2021/08/11 06:38:20;;;;;;;10.98;5.82;;;14.40;84.00;;;;;;5075232;28;20052;-92
2021/08/11 06:40:48;;;;;;;13.05;6.60;;;14.40;84.20;;;;;;5075205;28;20093;-92
2021/08/11 06:43:15;;;;;;;11.63;5.60;;;14.40;84.20;;;;;;5075169;28;20045;-90
2021/08/11 06:45:42;;;;;;;13.30;6.38;;;14.50;84.20;;;;;;5074983;28;20493;-90
2021/08/11 06:48:09;;;;;;;14.48;5.68;;;14.60;84.10;;;;;;5075113;28;20094;-90
2021/08/11 06:50:36;;;;;;;11.40;5.57;;;14.60;84.20;;;;;;5074652;28;20578;-90
2021/08/11 06:53:02;;;;;;;9.02;5.70;;;14.70;84.20;;;;;;5074160;28;20583;-89
2021/08/11 06:55:29;;;;;;;15.68;7.30;;;14.80;84.30;;;;;;5074514;28;20106;-91
2021/08/11 06:57:56;;;;;;;10.10;5.72;;;14.80;84.30;;;;;;5074456;28;20040;-90
2021/08/11 07:00:23;;;;;;;14.38;7.20;;;14.90;84.50;;;;;;5069572;28;20457;-87
2021/08/11 07:02:50;;;;;;;14.82;6.85;;;15.00;84.50;;;;;;5076790;28;20052;-91
2021/08/11 07:05:18;;;;;;;10.43;6.30;;;15.10;84.50;;;;;;5076535;28;20510;-87
2021/08/11 07:07:45;;;;;;;13.50;5.65;;;15.10;84.50;;;;;;5076424;28;20569;-89
2021/08/11 07:10:14;;;;;;;13.25;5.78;;;15.30;84.60;;;;;;5073966;28;20505;-90
2021/08/11 07:12:43;;;;;;;10.88;6.25;;;15.40;84.50;;;;;;5090088;28;20047;-93
2021/08/11 07:15:11;;;;;;;16.20;5.85;;;15.40;84.50;;;;;;5087920;28;20044;-89
2021/08/11 07:17:49;;;;;;;10.63;5.38;;;15.50;84.50;;;;;;5086373;28;20111;-93
2021/08/11 07:20:16;;;;;;;9.82;5.10;;;15.60;84.40;;;;;;5081667;28;20041;-88
2021/08/11 07:22:43;;;;;;;15.50;4.82;;;15.70;84.30;;;;;;5072168;28;20052;-93
2021/08/11 07:25:11;;;;;;;8.95;4.13;;;15.80;84.20;;;;;;5075566;28;20066;-91
2021/08/11 07:27:38;;;;;;;9.32;4.80;;;15.90;84.00;;;;;;5075326;28;20056;-90
2021/08/11 07:30:06;;;;;;;12.05;4.50;;;15.90;83.80;;;;;;5078575;28;20048;-93
2021/08/11 07:32:33;;;;;;;11.15;5.13;;;15.90;83.70;;;;;;5088245;28;20086;-91
2021/08/11 07:35:01;;;;;;;10.00;4.28;;;16.00;83.70;;;;;;5083343;28;20044;-94
2021/08/11 07:37:28;;;;;;;10.73;5.22;;;16.10;83.70;;;;;;5079253;28;20048;-94
2021/08/11 07:39:56;;;;;;;10.50;4.75;;;16.10;83.60;;;;;;5074586;28;20067;-94
2021/08/11 07:42:24;;;;;;;7.60;4.15;;;16.20;83.60;;;;;;5097797;28;20051;-84
2021/08/11 07:44:50;;;;;;;9.13;4.43;;;16.30;83.50;;;;;;5095994;28;20032;-84
2021/08/11 07:47:18;;;;;;;6.38;4.20;;;16.40;83.50;;;;;;5094416;28;20045;-93
2021/08/11 07:49:45;;;;;;;11.15;4.90;;;16.40;83.50;;;;;;5092065;28;20070;-94
2021/08/11 07:52:12;;;;;;;6.45;3.67;;;16.50;83.40;;;;;;5084510;28;20048;-95
2021/08/11 07:54:39;;;;;;;7.45;4.18;;;16.60;83.40;;;;;;5085040;28;20048;-86
2021/08/11 07:57:06;;;;;;;9.05;3.90;;;16.70;83.10;;;;;;5091910;28;20510;-92
2021/08/11 07:59:33;;;;;;;9.88;3.47;;;16.80;83.00;;;;;;5072573;28;20083;-90
2021/08/11 08:02:00;;;;;;;7.57;3.22;;;16.90;82.70;;;;;;5072925;28;20048;-90
2021/08/11 08:04:27;;;;;;;6.95;3.03;;;16.90;82.40;;;;;;5074058;28;20047;-93
2021/08/11 08:06:54;;;;;;;8.45;3.67;;;17.00;82.10;;;;;;5068765;28;20048;-93
2021/08/11 08:09:21;;;;;;;5.72;2.90;;;17.00;81.80;;;;;;5086143;28;20101;-91
2021/08/11 08:11:48;;;;;;;9.88;3.63;;;17.10;81.40;;;;;;5074911;28;20056;-91
2021/08/11 08:14:15;;;;;;;7.65;2.95;;;17.20;81.00;;;;;;5075275;28;20066;-90
2021/08/11 08:16:42;;;;;;;7.72;3.25;;;17.20;80.90;;;;;;5075713;28;20063;-90
2021/08/11 08:19:09;;;;;;;8.25;3.45;;;17.30;80.90;;;;;;5072142;28;20075;-95
2021/08/11 08:21:37;;;;;;;7.70;3.13;;;17.40;80.90;;;;;;5090369;28;20614;-94
2021/08/11 08:24:04;;;;;;;6.00;2.92;;;17.40;80.80;;;;;;5073274;28;20106;-93
2021/08/11 08:26:31;;;;;;;6.97;3.30;;;17.50;80.80;;;;;;5073536;28;20048;-91
2021/08/11 08:28:58;;;;;;;6.22;2.60;;;17.60;80.70;;;;;;5073509;28;20045;-91
2021/08/11 08:31:25;;;;;;;7.10;3.20;;;17.60;80.40;;;;;;5073363;28;20048;-92
2021/08/11 08:33:53;;;;;;;5.75;2.70;;;17.70;79.80;;;;;;5054446;28;20556;-94
2021/08/11 08:36:20;;;;;;;5.72;2.92;;;17.80;79.60;;;;;;5086777;28;20052;-92
2021/08/11 08:38:47;;;;;;;8.50;2.72;;;17.90;78.80;;;;;;5073772;28;20052;-93
2021/08/11 08:41:15;;;;;;;8.07;3.13;;;17.90;78.40;;;;;;5073105;28;20044;-88
2021/08/11 08:43:41;;;;;;;8.15;2.90;;;18.00;78.40;;;;;;5071095;28;20048;-91
2021/08/11 08:46:09;;;;;;;7.57;3.03;;;18.20;78.40;;;;;;5070564;28;20170;-91
2021/08/11 08:48:43;;;;;;;9.43;3.17;;;18.20;78.20;;;;;;5073372;28;20048;-92
2021/08/11 08:51:11;;;;;;;10.63;3.08;;;18.40;78.20;;;;;;5076154;28;20040;-90
2021/08/11 08:53:43;;;;;;;7.85;3.20;;;18.40;77.70;;;;;;5072883;28;20052;-91
2021/08/11 08:56:11;;;;;;;6.82;2.45;;;18.50;77.50;;;;;;5076033;28;20040;-94
2021/08/11 08:58:38;;;;;;;5.85;2.63;;;18.60;76.60;;;;;;5074448;28;20048;-89
2021/08/11 09:01:06;;;;;;;11.35;2.50;;;18.70;76.20;;;;;;5071769;28;20166;-92
2021/08/11 09:03:33;;;;;;;6.53;2.80;;;18.90;75.60;;;;;;5072882;28;20532;-90
2021/08/11 09:06:01;;;;;;;10.95;2.83;;;18.90;75.30;;;;;;5075785;28;20111;-92
2021/08/11 09:08:29;;;;;;;7.78;2.78;;;19.00;75.00;;;;;;5076902;28;20098;-93
2021/08/11 09:10:55;;;;;;;5.45;2.35;;;19.10;74.70;;;;;;5072842;28;20079;-92
2021/08/11 09:13:23;;;;;;;7.85;2.47;;;19.20;74.50;;;;;;5072627;28;20505;-91
2021/08/11 09:16:03;;;;;;;7.05;2.45;;;19.30;74.20;;;;;;5069726;28;20075;-93
2021/08/11 09:18:30;;;;;;;6.97;2.45;;;19.30;73.60;;;;;;5085212;28;20051;-91
2021/08/11 09:21:03;;;;;;;5.53;2.60;;;19.40;73.30;;;;;;5076549;28;20055;-93
2021/08/11 09:23:39;;;;;;;6.38;2.40;;;19.40;72.90;;;;;;5075759;28;20053;-90
2021/08/11 09:26:09;;;;;;;7.65;2.30;;;19.50;71.70;;;;;;5072384;28;20097;-92
2021/08/11 09:28:38;;;;;;;5.45;2.40;;;19.60;72.10;;;;;;5074357;28;20052;-92
2021/08/11 09:31:25;;;;;;;7.93;2.75;;;19.80;72.30;;;;;;5083799;28;20041;-93
2021/08/11 09:33:54;;;;;;;5.75;2.38;;;19.90;72.60;;;;;;5053357;28;20043;-92
2021/08/11 09:36:21;;;;;;;5.15;2.20;;;20.00;72.50;;;;;;5085389;28;20060;-95
2021/08/11 09:38:55;;;;;;;7.28;2.53;;;20.10;71.60;;;;;;5073558;28;20053;-95
2021/08/11 09:41:24;;;;;;;6.10;2.45;;;20.10;71.10;;;;;;5072958;28;20048;-90
2021/08/11 09:44:08;;;;;;;5.78;2.42;;;20.10;70.70;;;;;;5072792;28;20040;-91
2021/08/11 09:46:39;;;;;;;9.23;2.97;;;20.20;70.50;;;;;;5072847;28;20048;-91
2021/08/11 09:49:18;;;;;;;6.82;2.50;;;20.30;70.70;;;;;;5070840;28;20055;-90
2021/08/11 09:51:55;;;;;;;8.73;3.10;;;20.40;70.80;;;;;;5071062;28;20045;-95
2021/08/11 09:54:23;;;;;;;5.00;2.30;;;20.50;71.00;;;;;;5085001;28;20113;-93
2021/08/11 09:56:50;;;;;;;8.50;3.00;;;20.60;70.50;;;;;;5081909;28;20514;-92
2021/08/11 09:59:17;;;;;;;4.70;2.30;;;20.60;69.40;;;;;;5081788;28;20048;-93
2021/08/11 10:01:47;;;;;;;7.20;2.85;;;20.70;69.30;;;;;;5084128;28;20084;-95
2021/08/11 10:04:14;;;;;;;6.35;2.40;;;20.80;69.30;;;;;;5080858;28;20052;-93
2021/08/11 10:06:43;;;;;;;5.45;2.50;;;20.80;68.50;;;;;;5080372;28;20098;-91
2021/08/11 10:09:16;;;;;;;6.30;2.42;;;20.90;67.90;;;;;;5080486;28;20510;-94
2021/08/11 10:11:47;;;;;;;8.20;2.50;;;21.00;68.10;;;;;;5081466;28;20094;-93
2021/08/11 10:14:16;;;;;;;6.18;2.08;;;21.10;67.80;;;;;;5084300;28;20352;-92
2021/08/11 10:16:45;;;;;;;9.27;2.65;;;21.20;67.70;;;;;;5084511;28;20082;-93
2021/08/11 10:19:13;;;;;;;5.95;2.45;;;21.30;67.60;;;;;;5075213;28;20049;-89
2021/08/11 10:21:53;;;;;;;5.40;2.42;;;21.30;66.80;;;;;;5074795;28;20048;-93
2021/08/11 10:24:21;;;;;;;5.97;2.60;;;21.40;67.20;;;;;;5086362;28;20113;-92
2021/08/11 10:26:51;;;;;;;6.03;2.50;;;21.50;67.40;;;;;;5077263;28;20048;-92
2021/08/11 10:29:19;;;;;;;8.05;2.83;;;21.60;66.40;;;;;;5076553;28;20066;-92
2021/08/11 10:31:46;;;;;;;7.93;2.33;;;21.70;66.70;;;;;;5077704;28;20074;-94
2021/08/11 10:34:16;;;;;;;4.75;2.15;;;21.80;66.50;;;;;;5075123;28;20049;-92
2021/08/11 10:36:45;;;;;;;6.72;2.53;;;21.90;66.80;;;;;;5075531;28;20048;-91
2021/08/11 10:39:15;;;;;;;5.80;2.47;;;22.00;65.80;;;;;;5079139;28;20579;-92
2021/08/11 10:41:43;;;;;;;7.57;2.55;;;22.00;65.20;;;;;;5075931;28;20053;-93
2021/08/11 10:44:17;;;;;;;4.05;2.17;;;22.10;65.50;;;;;;5083163;28;20040;-89
2021/08/11 10:46:59;;;;;;;6.50;2.85;;;22.20;64.80;;;;;;5087250;28;20048;-95
2021/08/11 10:49:28;;;;;;;4.53;2.40;;;22.20;64.50;;;;;;5076169;28;20047;-94
2021/08/11 10:52:00;;;;;;;4.95;2.30;;;22.30;64.10;;;;;;5056920;28;20102;-91
2021/08/11 10:54:27;;;;;;;4.85;2.40;;;22.30;64.10;;;;;;5090851;28;20048;-91
2021/08/11 10:56:56;;;;;;;6.97;2.58;;;22.40;64.00;;;;;;5078585;28;20052;-90
2021/08/11 10:59:27;;;;;;;5.93;2.40;;;22.40;64.20;;;;;;5074769;28;20044;-90
2021/08/11 11:01:59;;;;;;;6.22;2.22;;;22.40;64.40;;;;;;5075483;28;20053;-91
2021/08/11 11:04:42;;;;;;;5.60;2.28;;;22.40;64.60;;;;;;5074164;28;20066;-90
2021/08/11 11:07:10;;;;;;;5.03;2.50;;;22.50;65.00;;;;;;5057491;28;20041;-91
2021/08/11 11:09:38;;;;;;;7.18;2.72;;;22.60;65.10;;;;;;5074633;28;20441;-90
2021/08/11 11:12:17;;;;;;;6.10;2.60;;;22.60;64.50;;;;;;5076483;28;20052;-93
2021/08/11 11:14:46;;;;;;;4.55;2.47;;;22.60;64.30;;;;;;5074756;28;20056;-90
2021/08/11 11:17:14;;;;;;;7.38;2.60;;;22.60;64.10;;;;;;5076460;28;20040;-92
2021/08/11 11:20:03;;;;;;;4.75;2.30;;;22.60;63.10;;;;;;5076295;28;20098;-90
2021/08/11 11:22:37;;;;;;;5.22;2.55;;;22.60;62.70;;;;;;5074920;28;20105;-89
2021/08/11 11:25:04;;;;;;;;;;;22.60;63.10;;;;;;5073137;28;20063;-88
2021/08/11 11:27:41;;;;;;;6.15;2.20;;;22.60;63.60;;;;;;5074342;28;19973;-88
2021/08/11 11:30:15;;;;;;;6.43;2.20;;;22.60;63.80;;;;;;5076738;28;20102;-91
2021/08/11 11:32:42;;;;;;;7.55;2.28;;;22.60;63.60;;;;;;5076008;28;20572;-91
2021/08/11 11:35:15;;;;;;;10.80;2.75;;;22.50;63.10;;;;;;5075677;28;20139;-91
2021/08/11 11:37:43;;;;;;;6.35;2.60;;;22.40;63.00;;;;;;5074803;28;20048;-93
2021/08/11 11:40:17;;;;;;;6.00;2.40;;;22.40;63.20;;;;;;5072039;28;20048;-92
2021/08/11 11:42:45;;;;;;;4.55;2.05;;;22.40;63.50;;;;;;5072627;28;20490;-95
2021/08/11 11:45:14;;;;;;;4.63;2.47;;;22.50;63.70;;;;;;5078358;28;20053;-92
2021/08/11 11:47:47;;;;;;;5.35;2.85;;;22.60;63.60;;;;;;5074159;28;20118;-91
2021/08/11 11:50:20;;;;;;;5.97;2.38;;;22.60;63.70;;;;;;5074219;28;20502;-91
2021/08/11 11:53:02;;;;;;;6.88;2.42;;;22.70;63.70;;;;;;5073472;28;20191;-91
2021/08/11 11:55:42;;;;;;;4.97;2.20;;;22.80;63.70;;;;;;5073968;28;20097;-91
2021/08/11 11:58:14;;;;;;;4.15;2.10;;;22.70;63.70;;;;;;5071429;28;20045;-91
2021/08/11 12:00:44;;;;;;;5.75;2.45;;;22.70;63.90;;;;;;5073289;28;20044;-92
2021/08/11 12:03:12;;;;;;;5.47;2.05;;;22.80;64.10;;;;;;5076857;28;20078;-92
2021/08/11 12:05:51;;;;;;;5.20;2.50;;;22.80;63.20;;;;;;5073297;28;20049;-89
2021/08/11 12:08:20;;;;;;;9.23;2.63;;;22.80;63.20;;;;;;5075598;28;20040;-89
2021/08/11 12:11:01;;;;;;;5.78;2.45;;;22.80;63.10;;;;;;5075207;28;20063;-90
2021/08/11 12:13:45;;;;;;;7.85;2.63;;;22.80;63.20;;;;;;5075072;28;20397;-90
2021/08/11 12:16:14;;;;;;;6.78;2.75;;;22.90;63.50;;;;;;5073769;28;20048;-92
2021/08/11 12:18:45;;;;;;;5.43;2.35;;;22.90;63.40;;;;;;5071933;28;20052;-90
2021/08/11 12:21:13;;;;;;;5.75;2.70;;;23.00;63.20;;;;;;5076126;28;20044;-90
2021/08/11 12:23:41;;;;;;;5.45;2.47;;;23.10;63.20;;;;;;5073408;28;20102;-92
2021/08/11 12:26:14;;;;;;;7.72;2.03;;;23.20;63.10;;;;;;5073217;28;20048;-91
2021/08/11 12:28:48;;;;;;;6.73;2.30;;;23.30;63.00;;;;;;5072987;28;20113;-90
2021/08/11 12:31:24;;;;;;;7.38;2.80;;;23.40;62.80;;;;;;5071861;28;20548;-89
2021/08/11 12:33:53;;;;;;;6.05;2.30;;;23.60;62.30;;;;;;5069847;28;20498;-90
2021/08/11 12:36:26;;;;;;;5.70;2.95;;;23.70;61.70;;;;;;5076837;28;20048;-91
2021/08/11 12:39:19;;;;;;;6.07;2.42;;;23.80;61.80;;;;;;5074001;28;20379;-92
2021/08/11 12:42:01;;;;;;;5.25;2.40;;;24.00;62.10;;;;;;5071815;28;20082;-94
2021/08/11 12:44:30;;;;;;;5.38;2.30;;;24.20;62.00;;;;;;5072962;28;20123;-89
2021/08/11 12:47:05;;;;;;;4.68;2.35;;;24.20;61.90;;;;;;5072880;28;20456;-92
2021/08/11 12:49:40;;;;;;;6.55;2.70;;;24.30;61.10;;;;;;5072695;28;20055;-92
2021/08/11 12:52:10;;;;;;;4.80;2.17;;;24.40;61.00;;;;;;5070181;28;20144;-91